Java Village, New York
Current Conditions -  °F | °C
As of 8:54 PM on Tuesday 25 Nov 2014 (Local Time) from KBUF Reporting Station
Overcast Overcast  
Wind Chill: 25°   Ceiling: 3300
Heat Index: 34°   Visibility: 10mi
Dew Point: 22°   Wind: 13mph
Humidity: 61%   Direction: 280°W
Pressure: 30.16"   Gusts: NA
Location:  42.67°N, 78.44°W
Report Text: KBUF 260154Z 28011KT 10SM FEW023 OVC033 01/M06 A3016 RMK AO2 RAE21SNE21 SLP220 P0000 T00111056
Loading
Personal Weather Stations






























Interactive Weather Map New forecast layout! Learn more

10-Day Weather Forecast

Advertisements
Track Severe Weather on mobile